Time;durP1;ratioP1;P1;durP2;ratioP2;P2;SDS_P1;SDS_P2;PMS_P1;PMS_P2;Temp;Humidity;BMP_temperature;BMP_pressure;BME280_temperature;BME280_humidity;BME280_pressure;Samples;Min_cycle;Max_cycle;Signal;HPM_P1;HPM_P2
2021/08/14 00:02:02;;;;;;;7.55;6.72;;;;;;;19.76;78.09;95734.03;5106871;28;20043;-67
2021/08/14 00:04:29;;;;;;;8.25;7.40;;;;;;;19.76;77.44;95734.03;5104773;27;20117;-66
2021/08/14 00:06:56;;;;;;;12.23;8.15;;;;;;;19.81;77.25;95741.97;5108575;27;20535;-67
2021/08/14 00:09:22;;;;;;;9.82;7.75;;;;;;;19.79;77.69;95733.47;5106875;28;20485;-67
2021/08/14 00:11:49;;;;;;;8.40;6.90;;;;;;;19.82;77.19;95727.66;5107037;28;20052;-67
2021/08/14 00:14:16;;;;;;;8.93;7.47;;;;;;;19.82;77.11;95728.44;5106860;28;20047;-67
2021/08/14 00:16:43;;;;;;;12.15;7.80;;;;;;;19.76;77.31;95728.75;5105805;28;20035;-67
2021/08/14 00:19:10;;;;;;;11.88;7.40;;;;;;;19.83;77.03;95734.56;5111866;27;20045;-67
2021/08/14 00:21:37;;;;;;;12.77;8.18;;;;;;;19.71;78.18;95737.44;5111808;27;20531;-67
2021/08/14 00:24:05;;;;;;;12.57;7.15;;;;;;;19.74;77.76;95733.50;5105558;28;20047;-67
2021/08/14 00:26:31;;;;;;;11.10;7.53;;;;;;;19.68;78.42;95744.06;5115343;27;20047;-67
2021/08/14 00:28:58;;;;;;;13.30;7.35;;;;;;;19.74;77.73;95736.16;5111298;27;20056;-69
2021/08/14 00:31:25;;;;;;;9.38;7.38;;;;;;;19.71;78.15;95744.56;5114151;27;20046;-67
2021/08/14 00:33:52;;;;;;;8.45;7.32;;;;;;;19.68;78.14;95749.34;5105858;28;20126;-67
2021/08/14 00:36:19;;;;;;;8.43;6.80;;;;;;;19.70;78.20;95748.28;5107823;27;20066;-67
2021/08/14 00:38:45;;;;;;;9.27;7.18;;;;;;;19.73;78.18;95745.91;5113123;27;20038;-67
2021/08/14 00:41:12;;;;;;;9.05;7.43;;;;;;;19.73;78.35;95750.38;5113077;27;20051;-67
2021/08/14 00:43:40;;;;;;;10.52;7.22;;;;;;;19.73;78.10;95750.38;5114099;27;20055;-66
2021/08/14 00:46:06;;;;;;;12.38;7.47;;;;;;;19.74;78.09;95754.66;5107183;27;20046;-67
2021/08/14 00:48:35;;;;;;;14.35;7.97;;;;;;;19.75;78.02;95758.88;5105464;28;20375;-67
2021/08/14 00:51:03;;;;;;;9.52;7.45;;;;;;;19.69;78.51;95755.41;5103984;28;20058;-66
2021/08/14 00:53:29;;;;;;;13.10;7.88;;;;;;;19.65;78.81;95752.50;5111746;27;20043;-66
2021/08/14 00:55:56;;;;;;;10.75;7.43;;;;;;;19.61;78.29;95743.53;5112175;27;20130;-66
2021/08/14 00:58:23;;;;;;;10.73;6.97;;;;;;;19.54;78.87;95737.72;5113977;27;20040;-67
2021/08/14 01:00:50;;;;;;;10.02;7.35;;;;;;;19.57;78.73;95739.84;5109939;27;20040;-67
2021/08/14 01:03:18;;;;;;;8.82;7.93;;;;;;;19.54;78.95;95753.56;5105996;28;20054;-67
2021/08/14 01:05:47;;;;;;;10.63;6.82;;;;;;;19.50;79.27;95747.25;5105992;28;20687;-67
2021/08/14 01:08:14;;;;;;;9.98;7.68;;;;;;;19.50;79.96;95752.53;5109636;28;20861;-66
2021/08/14 01:10:41;;;;;;;10.30;7.55;;;;;;;19.41;80.26;95746.16;5094458;28;20130;-67
2021/08/14 01:13:08;;;;;;;11.68;7.85;;;;;;;19.40;80.19;95752.53;5111674;28;20048;-67
2021/08/14 01:15:39;;;;;;;9.48;7.25;;;;;;;19.28;80.83;95744.84;5105888;28;20074;-67
2021/08/14 01:18:06;;;;;;;11.90;7.22;;;;;;;19.24;80.98;95744.56;5105483;28;20047;-67
2021/08/14 01:20:33;;;;;;;17.75;7.47;;;;;;;19.23;80.39;95743.00;5104016;28;20046;-67
2021/08/14 01:23:00;;;;;;;14.13;7.30;;;;;;;19.26;80.56;95747.75;5105534;28;20463;-67
2021/08/14 01:25:27;;;;;;;11.98;7.65;;;;;;;19.23;80.82;95745.66;5105681;28;20043;-67
2021/08/14 01:27:53;;;;;;;10.73;8.05;;;;;;;19.20;81.08;95738.25;5108365;28;20035;-66
2021/08/14 01:30:20;;;;;;;10.93;7.20;;;;;;;19.07;81.89;95739.56;5108130;28;20031;-66
2021/08/14 01:32:47;;;;;;;11.25;7.25;;;;;;;19.06;81.66;95740.59;5094363;28;20050;-68
2021/08/14 01:35:14;;;;;;;10.27;6.90;;;;;;;19.11;82.06;95745.09;5112097;28;20039;-68
2021/08/14 01:37:41;;;;;;;9.35;7.80;;;;;;;19.10;81.83;95748.78;5103920;28;20047;-68
2021/08/14 01:40:08;;;;;;;8.57;7.55;;;;;;;18.98;82.02;95745.59;5108515;28;20041;-68
2021/08/14 01:42:35;;;;;;;14.05;9.85;;;;;;;18.89;82.37;95754.03;5112200;28;20504;-68
2021/08/14 01:45:03;;;;;;;10.50;8.60;;;;;;;18.82;82.42;95742.16;5105051;28;20043;-67
2021/08/14 01:47:29;;;;;;;9.85;8.82;;;;;;;18.69;82.48;95748.66;5105757;28;20520;-68
2021/08/14 01:49:56;;;;;;;10.80;9.13;;;;;;;18.58;83.02;95747.06;5110438;28;20119;-68
2021/08/14 01:52:23;;;;;;;16.33;9.10;;;;;;;18.47;83.27;95747.00;5105200;28;20052;-68
2021/08/14 01:54:50;;;;;;;12.45;9.65;;;;;;;18.42;83.50;95754.94;5104756;28;20039;-67
2021/08/14 01:57:16;;;;;;;11.82;9.48;;;;;;;18.36;83.76;95753.31;5105219;28;20047;-68
2021/08/14 01:59:44;;;;;;;12.50;9.05;;;;;;;18.34;83.73;95752.78;5105343;28;20047;-67
2021/08/14 02:02:11;;;;;;;12.45;9.60;;;;;;;18.24;84.27;95748.25;5109861;28;20040;-67
2021/08/14 02:04:38;;;;;;;10.23;9.13;;;;;;;18.30;84.41;95749.84;5106180;28;20118;-67
2021/08/14 02:07:05;;;;;;;15.30;9.15;;;;;;;18.30;84.27;95751.72;5107732;28;20035;-68
2021/08/14 02:09:32;;;;;;;12.07;9.93;;;;;;;18.17;84.56;95737.16;5108576;28;20096;-68
2021/08/14 02:11:59;;;;;;;12.73;10.57;;;;;;;18.15;85.09;95745.31;5108849;28;20036;-67
2021/08/14 02:14:26;;;;;;;11.48;9.63;;;;;;;18.21;84.31;95743.50;5108142;28;20058;-67
2021/08/14 02:16:53;;;;;;;10.95;9.57;;;;;;;18.06;85.80;95746.84;5108045;28;20035;-67
2021/08/14 02:19:20;;;;;;;9.63;8.63;;;;;;;18.10;85.67;95749.78;5109130;28;20044;-68
2021/08/14 02:21:46;;;;;;;10.38;9.27;;;;;;;18.15;85.39;95740.03;5109225;28;20113;-68
2021/08/14 02:24:13;;;;;;;10.90;8.75;;;;;;;18.03;86.02;95736.81;5109185;28;20044;-68
2021/08/14 02:26:40;;;;;;;10.93;8.95;;;;;;;17.91;86.78;95744.13;5108996;28;20489;-67
2021/08/14 02:29:07;;;;;;;10.80;9.05;;;;;;;17.81;88.52;95744.00;5109075;27;20052;-68
2021/08/14 02:31:34;;;;;;;15.70;9.88;;;;;;;17.82;88.33;95735.06;5108688;28;20039;-67
2021/08/14 02:34:00;;;;;;;13.55;10.90;;;;;;;17.86;88.21;95738.81;5080991;27;20040;-67
2021/08/14 02:36:27;;;;;;;14.75;10.70;;;;;;;17.85;87.63;95734.56;5110490;27;20474;-67
2021/08/14 02:38:54;;;;;;;15.00;10.10;;;;;;;17.66;88.78;95724.44;5096985;27;20128;-67
2021/08/14 02:41:21;;;;;;;15.30;10.10;;;;;;;17.77;88.55;95741.09;5117745;27;20050;-67
2021/08/14 02:43:48;;;;;;;15.63;10.40;;;;;;;17.75;88.63;95743.19;5116097;27;20044;-67
2021/08/14 02:46:15;;;;;;;17.30;9.35;;;;;;;17.83;87.97;95741.94;5115133;27;20047;-67
2021/08/14 02:48:41;;;;;;;23.67;11.48;;;;;;;17.80;87.63;95742.44;5114938;27;20055;-67
2021/08/14 02:51:08;;;;;;;21.75;10.23;;;;;;;17.86;87.32;95749.34;5106108;28;20507;-67
2021/08/14 02:53:35;;;;;;;19.92;10.10;;;;;;;17.91;86.96;95752.03;5108431;28;20039;-68
2021/08/14 02:56:02;;;;;;;21.23;9.82;;;;;;;17.83;87.27;95744.56;5110431;27;20046;-68
2021/08/14 02:58:29;;;;;;;20.13;10.15;;;;;;;17.67;88.13;95747.09;5115293;27;20047;-67
2021/08/14 03:00:55;;;;;;;14.98;9.10;;;;;;;17.55;89.67;95746.47;5107906;28;20036;-67
2021/08/14 03:03:22;;;;;;;11.30;8.77;;;;;;;17.62;89.40;95747.06;5108338;28;20121;-67
2021/08/14 03:05:49;;;;;;;12.07;9.15;;;;;;;17.63;88.94;95748.66;5107903;28;20122;-67
2021/08/14 03:08:16;;;;;;;11.82;8.77;;;;;;;17.71;88.10;95756.06;5110871;27;20047;-67
2021/08/14 03:10:43;;;;;;;14.73;8.07;;;;;;;17.65;88.49;95751.81;5115554;27;20051;-67
2021/08/14 03:13:12;;;;;;;16.40;8.60;;;;;;;17.44;89.78;95771.94;5107281;28;20051;-67
2021/08/14 03:15:39;;;;;;;13.30;9.35;;;;;;;17.15;91.33;95763.53;5107973;27;20031;-67
2021/08/14 03:18:06;;;;;;;12.80;9.43;;;;;;;17.19;91.46;95765.41;5107565;28;20040;-67
2021/08/14 03:20:33;;;;;;;16.45;9.05;;;;;;;17.28;91.27;95773.66;5111076;27;20054;-67
2021/08/14 03:23:00;;;;;;;10.93;9.82;;;;;;;17.30;91.12;95776.81;5107976;27;20051;-67
2021/08/14 03:25:27;;;;;;;12.07;9.10;;;;;;;17.36;90.57;95781.09;5111319;27;20108;-67
2021/08/14 03:27:54;;;;;;;13.98;9.32;;;;;;;17.43;90.44;95777.44;5112491;27;20071;-68
2021/08/14 03:30:20;;;;;;;14.05;9.48;;;;;;;17.40;90.83;95781.41;5112906;27;20047;-67
2021/08/14 03:32:47;;;;;;;10.93;9.40;;;;;;;17.28;91.36;95773.66;5095715;27;20117;-67
2021/08/14 03:35:15;;;;;;;19.50;10.10;;;;;;;17.27;91.76;95782.59;5114560;27;20051;-68
2021/08/14 03:37:42;;;;;;;12.57;9.13;;;;;;;17.28;91.80;95788.66;5114830;27;20035;-67
2021/08/14 03:40:10;;;;;;;16.08;10.45;;;;;;;17.35;90.99;95787.41;5095328;27;20095;-68
2021/08/14 03:42:37;;;;;;;19.70;10.63;;;;;;;17.27;91.39;95787.88;5106392;28;20054;-67
2021/08/14 03:45:04;;;;;;;21.65;10.38;;;;;;;17.33;91.13;95780.81;5107577;28;20051;-67
2021/08/14 03:47:31;;;;;;;23.42;11.13;;;;;;;17.33;91.27;95791.34;5107446;28;20046;-67
2021/08/14 03:49:58;;;;;;;24.80;10.75;;;;;;;17.30;90.96;95771.56;5107119;28;20051;-67
2021/08/14 03:52:24;;;;;;;27.92;11.70;;;;;;;17.44;91.28;95792.22;5105587;28;20039;-67
2021/08/14 03:54:51;;;;;;;27.23;12.40;;;;;;;17.46;90.46;95782.22;5108916;27;20046;-67
2021/08/14 03:57:18;;;;;;;18.52;10.75;;;;;;;17.52;90.82;95794.38;5115931;27;20057;-68
2021/08/14 03:59:45;;;;;;;23.35;11.02;;;;;;;17.50;90.60;95793.84;5107405;27;20031;-67
2021/08/14 04:02:12;;;;;;;15.07;10.38;;;;;;;17.49;90.18;95789.63;5113152;27;20066;-67
2021/08/14 04:04:39;;;;;;;18.02;8.93;;;;;;;17.57;89.80;95791.78;5112404;27;20496;-67
2021/08/14 04:07:05;;;;;;;13.25;9.20;;;;;;;17.48;90.47;95788.03;5112947;27;20043;-67
2021/08/14 04:09:32;;;;;;;30.75;9.73;;;;;;;17.42;90.78;95789.03;5110351;27;20032;-67
2021/08/14 04:11:59;;;;;;;12.25;10.45;;;;;;;17.28;92.06;95794.72;5109142;27;20039;-67
2021/08/14 04:14:26;;;;;;;12.73;9.63;;;;;;;17.36;92.07;95796.91;5107324;28;20054;-67
2021/08/14 04:16:53;;;;;;;14.48;9.73;;;;;;;17.43;91.61;95801.16;5107232;27;20178;-67
2021/08/14 04:19:20;;;;;;;12.45;11.10;;;;;;;17.42;91.91;95794.31;5107188;27;20043;-67
2021/08/14 04:21:47;;;;;;;16.38;11.82;;;;;;;17.51;91.98;95798.88;5112779;27;20047;-67
2021/08/14 04:24:14;;;;;;;19.48;12.13;;;;;;;17.50;91.55;95796.47;5106503;28;20433;-67
2021/08/14 04:26:41;;;;;;;17.55;12.25;;;;;;;17.59;91.55;95794.97;5114103;27;20042;-67
2021/08/14 04:29:09;;;;;;;15.35;11.30;;;;;;;17.42;92.12;95784.56;5111898;27;20047;-67
2021/08/14 04:31:36;;;;;;;12.25;10.77;;;;;;;17.49;92.51;95779.09;5113869;27;20035;-67
2021/08/14 04:34:03;;;;;;;11.85;9.70;;;;;;;17.60;91.76;95798.41;5111089;27;20038;-67
2021/08/14 04:36:30;;;;;;;13.15;9.45;;;;;;;17.64;91.60;95792.38;5105587;28;20051;-67
2021/08/14 04:38:56;;;;;;;17.17;11.13;;;;;;;17.73;91.60;95790.84;5113627;27;20039;-67
2021/08/14 04:41:23;;;;;;;12.95;9.35;;;;;;;17.81;91.77;95780.91;5113516;27;20816;-67
2021/08/14 04:43:50;;;;;;;11.82;10.27;;;;;;;17.94;90.76;95785.78;5112802;27;20421;-67
2021/08/14 04:46:17;;;;;;;10.98;9.73;;;;;;;17.94;90.56;95777.88;5113654;27;20051;-67
2021/08/14 04:48:43;;;;;;;14.95;9.68;;;;;;;18.10;90.11;95794.59;5109517;27;20071;-68
2021/08/14 04:51:10;;;;;;;16.05;9.88;;;;;;;18.15;89.70;95794.63;5110900;27;20036;-68
2021/08/14 04:53:37;;;;;;;15.38;10.05;;;;;;;18.14;89.49;95791.16;5105196;28;20047;-67
2021/08/14 04:56:04;;;;;;;13.77;9.98;;;;;;;18.29;89.24;95787.84;5105239;28;20040;-67
2021/08/14 04:58:31;;;;;;;15.23;9.07;;;;;;;18.26;88.68;95777.00;5107840;27;20055;-68
2021/08/14 05:00:58;;;;;;;19.02;8.98;;;;;;;18.38;87.98;95779.41;5112603;27;20035;-68
2021/08/14 05:03:25;;;;;;;15.75;8.98;;;;;;;18.51;87.59;95790.31;5106046;28;20052;-67
2021/08/14 05:05:52;;;;;;;15.35;8.57;;;;;;;18.61;86.90;95794.81;5105313;28;20075;-67
2021/08/14 05:08:19;;;;;;;13.45;9.27;;;;;;;18.68;86.90;95789.31;5109008;27;20108;-67
2021/08/14 05:10:45;;;;;;;14.85;9.93;;;;;;;18.77;86.26;95787.75;5112077;28;20043;-67
2021/08/14 05:13:12;;;;;;;17.40;10.10;;;;;;;18.77;86.08;95789.63;5104108;28;20063;-68
2021/08/14 05:15:39;;;;;;;17.80;9.45;;;;;;;18.83;85.79;95794.66;5093691;28;20051;-67
2021/08/14 05:18:06;;;;;;;13.52;8.20;;;;;;;18.89;84.73;95791.00;5112438;28;20455;-67
2021/08/14 05:20:33;;;;;;;12.18;8.23;;;;;;;19.04;84.36;95792.09;5113583;28;20046;-68
2021/08/14 05:23:00;;;;;;;8.50;7.32;;;;;;;19.17;84.14;95786.28;5110886;28;20039;-68
2021/08/14 05:25:28;;;;;;;16.67;9.05;;;;;;;19.25;83.02;95793.72;5113142;28;20043;-68
2021/08/14 05:27:55;;;;;;;10.40;8.35;;;;;;;19.35;83.00;95792.91;5113309;28;20047;-68
2021/08/14 05:30:22;;;;;;;14.05;9.10;;;;;;;19.42;83.25;95782.09;5104671;28;20039;-68
2021/08/14 05:32:48;;;;;;;13.65;9.52;;;;;;;19.45;82.91;95786.88;5113333;28;20040;-68
2021/08/14 05:35:15;;;;;;;11.40;9.40;;;;;;;19.58;81.97;95788.97;5108683;28;20054;-67
2021/08/14 05:37:42;;;;;;;13.75;10.45;;;;;;;19.62;81.95;95787.38;5109018;28;20044;-68
2021/08/14 05:40:10;;;;;;;15.70;9.38;;;;;;;19.73;81.94;95787.38;5112243;27;20051;-68
2021/08/14 05:42:36;;;;;;;10.15;9.02;;;;;;;19.85;82.25;95785.28;5117136;27;20039;-68
2021/08/14 05:45:04;;;;;;;10.75;9.00;;;;;;;19.90;80.57;95782.66;5115775;27;20036;-68
2021/08/14 05:47:30;;;;;;;14.52;8.30;;;;;;;19.96;80.58;95792.16;5111141;27;20112;-67
2021/08/14 05:49:57;;;;;;;11.82;7.80;;;;;;;20.04;80.20;95794.25;5116539;27;20039;-68
2021/08/14 05:52:24;;;;;;;13.18;9.13;;;;;;;20.12;80.01;95784.19;5111252;27;20413;-68
2021/08/14 05:54:51;;;;;;;11.05;7.82;;;;;;;20.24;80.56;95790.00;5114661;27;20045;-67
2021/08/14 05:57:17;;;;;;;10.95;7.55;;;;;;;20.28;78.22;95766.44;5115846;27;20054;-68
2021/08/14 05:59:44;;;;;;;8.45;7.43;;;;;;;20.46;76.96;95788.88;5116383;27;20039;-68
2021/08/14 06:02:11;;;;;;;10.40;7.40;;;;;;;20.51;77.48;95776.41;5111075;27;20044;-68
2021/08/14 06:04:38;;;;;;;8.98;7.60;;;;;;;20.65;76.37;95795.16;5113814;27;20036;-68
2021/08/14 06:07:05;;;;;;;10.40;8.15;;;;;;;20.73;76.58;95789.31;5108200;28;20048;-68
2021/08/14 06:09:32;;;;;;;10.27;7.30;;;;;;;20.84;76.44;95791.91;5113697;27;20054;-68
2021/08/14 06:11:59;;;;;;;10.23;7.57;;;;;;;20.94;75.57;95789.19;5109316;28;20417;-68
2021/08/14 06:14:26;;;;;;;12.23;7.18;;;;;;;21.13;74.86;95792.81;5109189;28;20047;-68
2021/08/14 06:16:53;;;;;;;9.98;7.10;;;;;;;21.24;73.74;95784.81;5108747;27;20083;-68
2021/08/14 06:19:20;;;;;;;10.63;6.95;;;;;;;21.36;73.43;95785.25;5107143;28;20047;-68
2021/08/14 06:21:47;;;;;;;11.30;6.28;;;;;;;21.52;73.91;95789.41;5109019;27;20051;-68
2021/08/14 06:24:14;;;;;;;9.48;6.60;;;;;;;21.66;72.12;95791.41;5109178;27;20039;-68
2021/08/14 06:26:40;;;;;;;14.43;7.00;;;;;;;21.83;71.79;95794.44;5108911;28;20047;-68
2021/08/14 06:29:07;;;;;;;8.32;5.60;;;;;;;21.98;71.81;95795.38;5106408;28;20062;-68
2021/08/14 06:31:34;;;;;;;7.43;6.57;;;;;;;22.10;71.15;95782.53;5106931;28;20039;-68
2021/08/14 06:34:01;;;;;;;6.82;5.47;;;;;;;22.04;69.98;95746.50;5107552;28;20046;-68
2021/08/14 06:36:28;;;;;;;8.73;6.50;;;;;;;22.43;69.79;95788.06;5109583;27;20470;-68
2021/08/14 06:38:56;;;;;;;12.93;7.00;;;;;;;22.57;69.14;95783.63;5108018;28;20047;-68
2021/08/14 06:41:23;;;;;;;9.60;6.35;;;;;;;22.69;68.47;95778.72;5108124;28;20081;-68
2021/08/14 06:43:50;;;;;;;8.85;6.60;;;;;;;22.76;67.43;95793.50;5108332;27;20073;-68
2021/08/14 06:46:16;;;;;;;9.90;6.03;;;;;;;22.80;65.59;95784.69;5107569;28;20048;-68
2021/08/14 06:48:43;;;;;;;9.10;5.95;;;;;;;22.92;64.46;95781.59;5106936;28;20047;-68
2021/08/14 06:51:13;;;;;;;9.38;5.95;;;;;;;23.00;64.41;95777.53;5105411;27;20044;-68
2021/08/14 06:53:40;;;;;;;7.72;6.28;;;;;;;23.09;63.88;95786.47;5106047;28;20040;-68
2021/08/14 06:56:07;;;;;;;9.80;5.75;;;;;;;23.20;63.38;95787.09;5108651;27;20475;-68
2021/08/14 06:58:34;;;;;;;12.63;7.15;;;;;;;23.29;61.46;95786.16;5114201;27;20447;-68
2021/08/14 07:01:01;;;;;;;8.23;6.35;;;;;;;23.38;63.52;95780.97;5108556;28;20050;-68
2021/08/14 07:03:28;;;;;;;12.02;6.47;;;;;;;23.55;62.52;95782.31;5111165;27;20051;-68
2021/08/14 07:05:55;;;;;;;8.30;5.63;;;;;;;23.65;60.92;95779.50;5113925;27;20039;-69
2021/08/14 07:08:21;;;;;;;19.23;6.07;;;;;;;23.76;61.39;95772.94;5108317;27;20053;-68
2021/08/14 07:10:48;;;;;;;9.07;5.85;;;;;;;23.82;61.21;95771.81;5108078;28;20046;-68
2021/08/14 07:13:15;;;;;;;9.45;5.72;;;;;;;23.91;59.78;95776.44;5107263;28;20051;-69
2021/08/14 07:15:42;;;;;;;7.72;6.20;;;;;;;24.03;60.11;95771.44;5108100;28;20069;-69
2021/08/14 07:18:09;;;;;;;8.45;6.00;;;;;;;24.15;60.06;95784.28;5108095;27;20501;-68
2021/08/14 07:20:36;;;;;;;9.07;5.57;;;;;;;24.13;59.77;95783.75;5106753;28;20042;-69
2021/08/14 07:23:03;;;;;;;10.98;5.70;;;;;;;24.27;59.72;95781.13;5106893;28;20039;-70
2021/08/14 07:25:29;;;;;;;8.23;5.72;;;;;;;24.36;57.79;95779.34;5092536;28;20040;-68
2021/08/14 07:27:57;;;;;;;7.15;5.95;;;;;;;24.53;58.09;95776.91;5105860;28;20424;-69
2021/08/14 07:30:24;;;;;;;9.05;6.13;;;;;;;24.77;56.78;95774.03;5107785;27;20040;-70
2021/08/14 07:32:51;;;;;;;10.30;6.32;;;;;;;24.99;57.54;95770.66;5107458;28;20058;-71
2021/08/14 07:35:18;;;;;;;7.53;5.85;;;;;;;25.18;55.48;95772.38;5108223;27;20044;-70
2021/08/14 07:37:49;;;;;;;7.70;5.47;;;;;;;25.33;54.74;95769.38;5108579;27;20756;-71
2021/08/14 07:40:20;;;;;;;6.57;5.28;;;;;;;25.34;55.59;95770.94;5108610;27;20401;-70
2021/08/14 07:42:47;;;;;;;7.78;5.63;;;;;;;25.32;55.09;95773.13;5108947;27;20035;-69
2021/08/14 07:45:17;;;;;;;8.80;5.57;;;;;;;25.27;54.79;95765.25;5110645;27;20044;-69
2021/08/14 07:47:47;;;;;;;6.43;5.38;;;;;;;25.37;54.32;95773.03;5109490;27;20039;-70
2021/08/14 07:50:22;;;;;;;9.05;5.82;;;;;;;25.50;54.75;95771.38;5108401;27;20039;-70
2021/08/14 07:52:50;;;;;;;10.50;5.40;;;;;;;25.56;56.28;95772.06;5106922;27;20500;-70
2021/08/14 07:55:17;;;;;;;8.93;5.95;;;;;;;25.75;55.98;95767.31;5111253;27;20490;-70
2021/08/14 07:57:45;;;;;;;10.63;5.53;;;;;;;26.00;53.77;95778.47;5091862;28;20039;-70
2021/08/14 08:00:15;;;;;;;7.40;5.70;;;;;;;26.15;54.87;95771.16;5108915;27;20038;-70
2021/08/14 08:02:42;;;;;;;9.45;6.82;;;;;;;26.25;52.42;95781.56;5106777;27;20047;-70
2021/08/14 08:05:11;;;;;;;8.43;6.05;;;;;;;26.26;51.21;95775.13;5108866;27;20118;-70
2021/08/14 08:07:40;;;;;;;8.10;5.10;;;;;;;26.25;49.24;95776.22;5109187;27;20040;-70
2021/08/14 08:10:08;;;;;;;8.10;4.78;;;;;;;26.27;49.56;95758.00;5109406;27;20051;-70
2021/08/14 08:12:35;;;;;;;6.30;5.18;;;;;;;26.35;48.07;95765.25;5112137;27;20028;-70
2021/08/14 08:15:02;;;;;;;8.65;5.13;;;;;;;26.49;49.80;95754.47;5112111;27;20116;-69
2021/08/14 08:17:29;;;;;;;12.02;6.20;;;;;;;26.47;48.06;95757.44;5114028;27;20043;-68
2021/08/14 08:19:56;;;;;;;6.32;5.43;;;;;;;26.62;48.38;95763.50;5111944;27;20062;-69
2021/08/14 08:22:23;;;;;;;12.23;6.50;;;;;;;26.81;48.08;95756.00;5107768;28;20043;-68
2021/08/14 08:24:50;;;;;;;8.00;4.97;;;;;;;26.92;49.52;95750.31;5108952;27;20050;-68
2021/08/14 08:27:16;;;;;;;10.73;5.57;;;;;;;27.25;48.37;95762.13;5110208;27;20122;-69
2021/08/14 08:29:43;;;;;;;8.25;5.43;;;;;;;27.43;48.37;95759.50;5106654;27;20062;-69
2021/08/14 08:32:10;;;;;;;5.72;5.07;;;;;;;27.65;47.31;95751.25;5108160;27;20036;-69
2021/08/14 08:34:37;;;;;;;12.23;5.68;;;;;;;27.76;44.47;95746.34;5108200;27;20036;-69
2021/08/14 08:37:04;;;;;;;10.48;5.88;;;;;;;27.92;44.85;95749.34;5114901;27;20398;-69
2021/08/14 08:39:32;;;;;;;6.28;5.38;;;;;;;28.03;43.15;95749.78;5113185;27;20058;-69
2021/08/14 08:41:59;;;;;;;9.60;6.47;;;;;;;27.89;43.21;95755.28;5113467;27;20035;-70
2021/08/14 08:44:26;;;;;;;9.60;5.50;;;;;;;28.06;45.35;95753.72;5108845;27;20048;-71
2021/08/14 08:46:54;;;;;;;6.70;5.40;;;;;;;28.22;43.52;95741.38;5109820;27;20520;-70
2021/08/14 08:49:21;;;;;;;12.57;6.85;;;;;;;28.41;43.72;95743.63;5108150;27;20047;-69
2021/08/14 08:51:48;;;;;;;8.25;6.45;;;;;;;28.64;41.15;95746.84;5104239;27;20050;-69
2021/08/14 08:54:16;;;;;;;10.20;5.47;;;;;;;28.90;41.64;95743.19;5114055;27;20054;-69
2021/08/14 08:56:43;;;;;;;10.07;6.53;;;;;;;29.16;40.96;95745.72;5118126;27;20043;-72
2021/08/14 08:59:12;;;;;;;7.80;5.78;;;;;;;29.26;40.73;95744.53;5109966;27;20501;-68
2021/08/14 09:01:40;;;;;;;8.77;6.03;;;;;;;29.09;40.45;95746.22;5114179;27;20035;-69
2021/08/14 09:04:29;;;;;;;11.00;7.60;;;;;;;28.66;41.35;95733.91;5115732;28;20409;-69
2021/08/14 09:06:59;;;;;;;9.85;6.85;;;;;;;29.14;40.12;95743.38;5109713;27;20179;-69
2021/08/14 09:09:31;;;;;;;9.40;5.97;;;;;;;29.32;38.22;95743.25;5106281;27;20044;-69
2021/08/14 09:12:02;;;;;;;8.45;5.72;;;;;;;29.38;37.90;95736.53;5107350;27;20051;-71
2021/08/14 09:14:44;;;;;;;8.43;6.35;;;;;;;29.17;38.82;95726.63;5106567;28;20040;-70
2021/08/14 09:17:12;;;;;;;11.05;6.13;;;;;;;28.76;41.36;95728.16;5104462;28;20052;-71
2021/08/14 09:19:39;;;;;;;10.30;6.43;;;;;;;29.16;39.93;95729.63;5103425;28;20042;-71
2021/08/14 09:22:13;;;;;;;6.97;6.25;;;;;;;29.71;40.67;95725.00;5104299;28;20070;-70
2021/08/14 09:24:40;;;;;;;8.57;6.85;;;;;;;30.16;38.72;95731.47;5106728;28;20036;-71
2021/08/14 09:27:11;;;;;;;12.95;7.43;;;;;;;29.95;38.04;95728.91;5107560;28;20421;-72
2021/08/14 09:29:39;;;;;;;7.97;7.05;;;;;;;30.28;39.11;95724.22;5103694;28;20466;-70
2021/08/14 09:32:09;;;;;;;9.50;7.30;;;;;;;30.18;36.60;95722.00;5093713;28;20052;-72
2021/08/14 09:34:41;;;;;;;8.75;7.78;;;;;;;30.33;37.93;95727.81;5106821;28;20058;-71
2021/08/14 09:37:11;;;;;;;13.50;8.55;;;;;;;30.05;38.02;95720.41;5110136;27;20055;-72
2021/08/14 09:39:52;;;;;;;11.07;8.98;;;;;;;30.62;38.27;95716.06;5106504;28;20481;-71
2021/08/14 09:42:20;;;;;;;10.00;7.82;;;;;;;30.60;37.18;95705.63;5107116;28;20429;-71
2021/08/14 09:45:09;;;;;;;12.38;7.55;;;;;;;30.96;36.18;95706.72;5107257;28;20036;-71
2021/08/14 09:47:36;;;;;;;8.90;7.35;;;;;;;31.28;38.29;95706.03;5107504;28;20436;-71
2021/08/14 09:50:03;;;;;;;10.18;8.05;;;;;;;31.68;34.21;95708.66;5106133;28;20081;-71
2021/08/14 09:52:30;;;;;;;9.93;7.72;;;;;;;31.83;34.35;95697.09;5109643;28;20512;-71
2021/08/14 09:54:57;;;;;;;9.73;7.32;;;;;;;31.73;34.44;95694.94;5114164;28;20036;-71
2021/08/14 09:57:25;;;;;;;11.15;8.52;;;;;;;31.88;33.91;95692.59;5106092;28;20054;-71
2021/08/14 09:59:52;;;;;;;10.93;7.53;;;;;;;31.94;34.93;95675.03;5112619;28;20421;-71
2021/08/14 10:02:23;;;;;;;11.68;9.18;;;;;;;31.89;33.88;95688.78;5108620;28;20047;-69
2021/08/14 10:04:51;;;;;;;10.23;9.15;;;;;;;31.63;32.96;95687.38;5104230;28;20104;-70
2021/08/14 10:07:19;;;;;;;9.77;8.52;;;;;;;32.39;28.82;95681.88;5111484;28;20584;-69
2021/08/14 10:09:47;;;;;;;9.43;8.52;;;;;;;32.78;27.29;95676.59;5107642;28;20045;-70
2021/08/14 10:12:16;;;;;;;11.63;8.02;;;;;;;33.10;28.36;95665.69;5106152;28;20048;-70
2021/08/14 10:14:48;;;;;;;9.85;8.05;;;;;;;33.27;27.25;95678.75;5110246;28;20036;-70
2021/08/14 10:17:16;;;;;;;9.40;8.60;;;;;;;32.82;27.26;95669.34;5105518;27;20057;-71
2021/08/14 10:19:43;;;;;;;11.20;8.55;;;;;;;33.19;27.72;95670.84;5103644;28;20035;-71
2021/08/14 10:22:10;;;;;;;10.40;6.47;;;;;;;33.39;26.07;95668.94;5107082;28;20051;-71
2021/08/14 10:24:42;;;;;;;6.95;5.90;;;;;;;33.67;24.05;95669.47;5106953;28;20054;-71
2021/08/14 10:27:10;;;;;;;7.38;6.38;;;;;;;33.65;26.59;95671.72;5107529;27;20055;-71
2021/08/14 10:29:47;;;;;;;6.88;5.97;;;;;;;33.56;27.09;95668.47;5103790;27;20055;-70
2021/08/14 10:32:29;;;;;;;7.10;6.15;;;;;;;33.71;27.24;95670.31;5106784;27;20138;-71
2021/08/14 10:35:17;;;;;;;6.97;6.32;;;;;;;34.19;24.31;95661.81;5112851;27;20706;-71
2021/08/14 10:37:46;;;;;;;7.38;6.65;;;;;;;34.15;25.96;95669.06;5109749;27;20044;-71
2021/08/14 10:40:14;;;;;;;6.63;5.78;;;;;;;34.70;24.91;95663.34;5109586;27;20056;-73
2021/08/14 10:42:53;;;;;;;9.27;5.88;;;;;;;34.96;24.51;95659.00;5110676;27;20031;-73
2021/08/14 10:45:31;;;;;;;6.70;5.95;;;;;;;35.15;24.08;95660.75;5109793;27;20043;-73
2021/08/14 10:48:05;;;;;;;6.07;4.97;;;;;;;35.71;23.00;95642.75;5106592;28;20425;-73
2021/08/14 10:50:32;;;;;;;7.15;5.07;;;;;;;36.19;22.50;95661.75;5091932;28;20055;-73
2021/08/14 10:53:11;;;;;;;7.22;5.65;;;;;;;35.94;23.55;95656.91;5103905;28;20055;-72
2021/08/14 10:55:39;;;;;;;9.38;4.80;;;;;;;35.92;22.58;95653.78;5106386;28;20046;-71
2021/08/14 10:58:23;;;;;;;8.15;4.55;;;;;;;35.93;23.03;95644.50;5110996;27;20513;-72
2021/08/14 11:01:14;;;;;;;6.03;4.95;;;;;;;35.67;23.89;95652.78;5109081;27;20501;-71
2021/08/14 11:03:41;;;;;;;6.38;4.57;;;;;;;35.62;24.17;95626.81;5094319;27;20051;-72
2021/08/14 11:06:36;;;;;;;7.90;4.65;;;;;;;35.63;23.55;95635.72;5109046;27;20552;-72
2021/08/14 11:09:18;;;;;;;6.20;4.85;;;;;;;35.65;24.56;95650.44;5107318;28;20050;-71
2021/08/14 11:12:01;;;;;;;5.18;4.47;;;;;;;35.77;21.82;95646.72;5108276;27;20073;-72
2021/08/14 11:14:40;;;;;;;5.10;4.20;;;;;;;35.95;24.12;95642.19;5106351;28;20044;-73
2021/08/14 11:17:07;;;;;;;7.90;4.30;;;;;;;35.65;23.30;95638.81;5107158;27;20039;-72
2021/08/14 11:19:50;;;;;;;4.90;4.00;;;;;;;35.98;23.51;95644.16;5105870;28;20035;-71
2021/08/14 11:22:29;;;;;;;5.40;4.50;;;;;;;36.06;23.04;95630.66;5105949;28;20767;-72
2021/08/14 11:25:02;;;;;;;8.82;4.43;;;;;;;35.82;23.61;95632.81;5106260;28;20050;-73
2021/08/14 11:27:34;;;;;;;4.63;4.18;;;;;;;36.12;22.18;95634.56;5106023;28;20040;-73
2021/08/14 11:30:07;;;;;;;8.50;4.22;;;;;;;35.89;23.56;95627.44;5106184;28;20047;-73
2021/08/14 11:32:34;;;;;;;9.07;4.40;;;;;;;35.83;22.89;95628.94;5108642;27;20047;-73